sensor_id;sensor_type;location;lat;lon;timestamp;temperature;humidity
16180;DHT22;8196;49.428;10.906;2023-05-02T00:01:58;6.20;99.90
16180;DHT22;8196;49.428;10.906;2023-05-02T00:04:24;6.20;99.90
16180;DHT22;8196;49.428;10.906;2023-05-02T00:06:52;6.20;99.90
16180;DHT22;8196;49.428;10.906;2023-05-02T00:09:20;6.20;99.90
16180;DHT22;8196;49.428;10.906;2023-05-02T00:11:46;6.20;99.90
16180;DHT22;8196;49.428;10.906;2023-05-02T00:14:13;6.10;99.90
16180;DHT22;8196;49.428;10.906;2023-05-02T00:16:40;6.10;99.90
16180;DHT22;8196;49.428;10.906;2023-05-02T00:19:07;6.10;99.90
16180;DHT22;8196;49.428;10.906;2023-05-02T00:21:33;6.10;99.90
16180;DHT22;8196;49.428;10.906;2023-05-02T00:24:00;6.10;99.90
16180;DHT22;8196;49.428;10.906;2023-05-02T00:26:27;6.10;99.90
16180;DHT22;8196;49.428;10.906;2023-05-02T00:28:54;6.00;99.90
16180;DHT22;8196;49.428;10.906;2023-05-02T00:31:21;6.00;99.90
16180;DHT22;8196;49.428;10.906;2023-05-02T00:33:47;6.00;99.90
16180;DHT22;8196;49.428;10.906;2023-05-02T00:36:16;5.90;99.90
16180;DHT22;8196;49.428;10.906;2023-05-02T00:38:43;5.90;99.90
16180;DHT22;8196;49.428;10.906;2023-05-02T00:41:10;5.90;99.90
16180;DHT22;8196;49.428;10.906;2023-05-02T00:43:37;5.90;99.90
16180;DHT22;8196;49.428;10.906;2023-05-02T00:46:05;5.90;99.90
16180;DHT22;8196;49.428;10.906;2023-05-02T00:48:34;5.90;99.90
16180;DHT22;8196;49.428;10.906;2023-05-02T00:51:03;6.50;99.90
16180;DHT22;8196;49.428;10.906;2023-05-02T00:53:31;5.90;99.90
16180;DHT22;8196;49.428;10.906;2023-05-02T00:55:58;5.90;99.90
16180;DHT22;8196;49.428;10.906;2023-05-02T00:58:25;5.90;99.90
16180;DHT22;8196;49.428;10.906;2023-05-02T01:06:26;5.80;99.90
16180;DHT22;8196;49.428;10.906;2023-05-02T01:14:14;5.80;99.90
16180;DHT22;8196;49.428;10.906;2023-05-02T01:16:42;5.80;99.90
16180;DHT22;8196;49.428;10.906;2023-05-02T01:19:25;5.80;99.90
16180;DHT22;8196;49.428;10.906;2023-05-02T01:21:55;5.80;99.90
16180;DHT22;8196;49.428;10.906;2023-05-02T01:24:29;5.80;99.90
16180;DHT22;8196;49.428;10.906;2023-05-02T01:27:13;5.80;99.90
16180;DHT22;8196;49.428;10.906;2023-05-02T01:29:44;5.70;99.90
16180;DHT22;8196;49.428;10.906;2023-05-02T01:32:14;5.70;99.90
16180;DHT22;8196;49.428;10.906;2023-05-02T01:34:42;5.70;99.90
16180;DHT22;8196;49.428;10.906;2023-05-02T01:37:11;5.70;99.90
16180;DHT22;8196;49.428;10.906;2023-05-02T01:39:39;5.60;99.90
16180;DHT22;8196;49.428;10.906;2023-05-02T01:42:06;5.60;99.90
16180;DHT22;8196;49.428;10.906;2023-05-02T01:44:33;5.60;99.90
16180;DHT22;8196;49.428;10.906;2023-05-02T01:47:04;5.50;99.90
16180;DHT22;8196;49.428;10.906;2023-05-02T01:49:32;5.50;99.90
16180;DHT22;8196;49.428;10.906;2023-05-02T01:52:04;5.50;99.90
16180;DHT22;8196;49.428;10.906;2023-05-02T01:54:34;5.50;99.90
16180;DHT22;8196;49.428;10.906;2023-05-02T01:57:05;5.40;99.90
16180;DHT22;8196;49.428;10.906;2023-05-02T01:59:33;5.40;99.90
16180;DHT22;8196;49.428;10.906;2023-05-02T02:02:01;5.30;99.90
16180;DHT22;8196;49.428;10.906;2023-05-02T02:04:30;5.30;99.90
16180;DHT22;8196;49.428;10.906;2023-05-02T02:07:02;5.30;99.90
16180;DHT22;8196;49.428;10.906;2023-05-02T02:09:30;5.30;99.90
16180;DHT22;8196;49.428;10.906;2023-05-02T02:12:01;5.30;99.90
16180;DHT22;8196;49.428;10.906;2023-05-02T02:14:42;5.30;99.90
16180;DHT22;8196;49.428;10.906;2023-05-02T02:17:15;5.30;99.90
16180;DHT22;8196;49.428;10.906;2023-05-02T02:19:42;5.30;99.90
16180;DHT22;8196;49.428;10.906;2023-05-02T02:22:11;5.30;99.90
16180;DHT22;8196;49.428;10.906;2023-05-02T02:24:39;5.30;99.90
16180;DHT22;8196;49.428;10.906;2023-05-02T02:27:06;5.30;99.90
16180;DHT22;8196;49.428;10.906;2023-05-02T02:29:33;5.30;99.90
16180;DHT22;8196;49.428;10.906;2023-05-02T02:32:00;5.30;99.90
16180;DHT22;8196;49.428;10.906;2023-05-02T02:34:26;5.30;99.90
16180;DHT22;8196;49.428;10.906;2023-05-02T02:37:00;5.20;99.90
16180;DHT22;8196;49.428;10.906;2023-05-02T02:39:34;4.60;99.90
16180;DHT22;8196;49.428;10.906;2023-05-02T02:42:15;5.20;99.90
16180;DHT22;8196;49.428;10.906;2023-05-02T02:50:49;5.20;99.90
16180;DHT22;8196;49.428;10.906;2023-05-02T02:53:25;5.10;99.90
16180;DHT22;8196;49.428;10.906;2023-05-02T02:55:57;5.10;99.90
16180;DHT22;8196;49.428;10.906;2023-05-02T02:58:53;5.00;99.90
16180;DHT22;8196;49.428;10.906;2023-05-02T03:01:21;5.00;99.90
16180;DHT22;8196;49.428;10.906;2023-05-02T03:03:51;5.00;99.90
16180;DHT22;8196;49.428;10.906;2023-05-02T03:06:19;4.90;99.90
16180;DHT22;8196;49.428;10.906;2023-05-02T03:08:46;4.90;99.90
16180;DHT22;8196;49.428;10.906;2023-05-02T03:11:13;4.90;99.90
16180;DHT22;8196;49.428;10.906;2023-05-02T03:13:40;4.90;99.90
16180;DHT22;8196;49.428;10.906;2023-05-02T03:18:34;4.80;99.90
16180;DHT22;8196;49.428;10.906;2023-05-02T03:21:00;4.80;99.90
16180;DHT22;8196;49.428;10.906;2023-05-02T03:23:27;4.80;99.90
16180;DHT22;8196;49.428;10.906;2023-05-02T03:25:54;4.80;99.90
16180;DHT22;8196;49.428;10.906;2023-05-02T03:28:21;4.70;99.90
16180;DHT22;8196;49.428;10.906;2023-05-02T03:30:47;4.70;99.90
16180;DHT22;8196;49.428;10.906;2023-05-02T03:33:14;4.90;99.90
16180;DHT22;8196;49.428;10.906;2023-05-02T03:35:41;4.80;99.90
16180;DHT22;8196;49.428;10.906;2023-05-02T03:38:08;4.70;99.90
16180;DHT22;8196;49.428;10.906;2023-05-02T03:40:34;4.70;99.90
16180;DHT22;8196;49.428;10.906;2023-05-02T03:43:01;4.70;99.90
16180;DHT22;8196;49.428;10.906;2023-05-02T03:45:28;4.70;99.90
16180;DHT22;8196;49.428;10.906;2023-05-02T03:47:55;4.80;99.90
16180;DHT22;8196;49.428;10.906;2023-05-02T03:50:22;4.80;99.90
16180;DHT22;8196;49.428;10.906;2023-05-02T03:52:48;4.80;99.90
16180;DHT22;8196;49.428;10.906;2023-05-02T03:55:16;4.90;99.90
16180;DHT22;8196;49.428;10.906;2023-05-02T03:57:42;2.20;99.90
16180;DHT22;8196;49.428;10.906;2023-05-02T04:00:09;4.90;99.90
16180;DHT22;8196;49.428;10.906;2023-05-02T04:02:36;4.80;99.90
16180;DHT22;8196;49.428;10.906;2023-05-02T04:05:04;5.00;99.90
16180;DHT22;8196;49.428;10.906;2023-05-02T04:07:34;5.10;99.90
16180;DHT22;8196;49.428;10.906;2023-05-02T04:10:01;5.10;99.90
16180;DHT22;8196;49.428;10.906;2023-05-02T04:12:28;5.10;99.90
16180;DHT22;8196;49.428;10.906;2023-05-02T04:14:55;5.10;99.90
16180;DHT22;8196;49.428;10.906;2023-05-02T04:17:21;5.20;99.90
16180;DHT22;8196;49.428;10.906;2023-05-02T04:19:48;5.30;99.90
16180;DHT22;8196;49.428;10.906;2023-05-02T04:22:15;5.30;99.90
16180;DHT22;8196;49.428;10.906;2023-05-02T04:24:42;5.40;99.90
16180;DHT22;8196;49.428;10.906;2023-05-02T04:27:08;5.40;99.90
16180;DHT22;8196;49.428;10.906;2023-05-02T04:29:38;5.40;99.90
16180;DHT22;8196;49.428;10.906;2023-05-02T04:32:05;5.50;99.90
16180;DHT22;8196;49.428;10.906;2023-05-02T04:34:32;6.00;99.90
16180;DHT22;8196;49.428;10.906;2023-05-02T04:37:00;5.80;99.90
16180;DHT22;8196;49.428;10.906;2023-05-02T04:39:27;5.80;99.90
16180;DHT22;8196;49.428;10.906;2023-05-02T04:41:53;5.80;99.90
16180;DHT22;8196;49.428;10.906;2023-05-02T04:44:20;5.90;99.90
16180;DHT22;8196;49.428;10.906;2023-05-02T04:46:47;6.00;99.90
16180;DHT22;8196;49.428;10.906;2023-05-02T04:49:14;6.20;99.90
16180;DHT22;8196;49.428;10.906;2023-05-02T04:51:40;6.30;99.90
16180;DHT22;8196;49.428;10.906;2023-05-02T04:54:07;6.00;99.90
16180;DHT22;8196;49.428;10.906;2023-05-02T04:56:34;6.50;99.90
16180;DHT22;8196;49.428;10.906;2023-05-02T04:59:00;6.50;99.90
16180;DHT22;8196;49.428;10.906;2023-05-02T05:01:27;6.60;99.90
16180;DHT22;8196;49.428;10.906;2023-05-02T05:03:54;6.60;99.90
16180;DHT22;8196;49.428;10.906;2023-05-02T05:06:21;6.70;99.90
16180;DHT22;8196;49.428;10.906;2023-05-02T05:08:48;6.90;99.90
16180;DHT22;8196;49.428;10.906;2023-05-02T05:11:15;6.80;99.90
16180;DHT22;8196;49.428;10.906;2023-05-02T05:13:42;7.00;99.90
16180;DHT22;8196;49.428;10.906;2023-05-02T05:16:09;7.10;99.90
16180;DHT22;8196;49.428;10.906;2023-05-02T05:18:36;9.20;99.90
16180;DHT22;8196;49.428;10.906;2023-05-02T05:21:07;7.40;99.90
16180;DHT22;8196;49.428;10.906;2023-05-02T05:23:35;7.50;99.90
16180;DHT22;8196;49.428;10.906;2023-05-02T05:31:05;7.80;99.90
16180;DHT22;8196;49.428;10.906;2023-05-02T05:33:33;7.90;99.90
16180;DHT22;8196;49.428;10.906;2023-05-02T05:36:06;8.40;99.90
16180;DHT22;8196;49.428;10.906;2023-05-02T05:38:32;8.20;99.90
16180;DHT22;8196;49.428;10.906;2023-05-02T05:40:59;8.30;99.90
16180;DHT22;8196;49.428;10.906;2023-05-02T05:43:27;8.40;99.90
16180;DHT22;8196;49.428;10.906;2023-05-02T05:45:54;8.50;99.90
16180;DHT22;8196;49.428;10.906;2023-05-02T05:48:22;8.60;99.90
16180;DHT22;8196;49.428;10.906;2023-05-02T05:50:49;8.70;99.90
16180;DHT22;8196;49.428;10.906;2023-05-02T05:53:18;8.80;99.90
16180;DHT22;8196;49.428;10.906;2023-05-02T05:55:45;8.90;99.90
16180;DHT22;8196;49.428;10.906;2023-05-02T05:58:12;9.10;99.90
16180;DHT22;8196;49.428;10.906;2023-05-02T06:00:39;9.10;99.90
16180;DHT22;8196;49.428;10.906;2023-05-02T06:03:07;9.30;99.90
16180;DHT22;8196;49.428;10.906;2023-05-02T06:05:35;9.20;99.90
16180;DHT22;8196;49.428;10.906;2023-05-02T06:08:02;9.30;99.90
16180;DHT22;8196;49.428;10.906;2023-05-02T06:10:30;9.30;99.90
16180;DHT22;8196;49.428;10.906;2023-05-02T06:12:56;13.20;99.90
16180;DHT22;8196;49.428;10.906;2023-05-02T06:15:23;9.60;99.90
16180;DHT22;8196;49.428;10.906;2023-05-02T06:17:50;9.80;99.90
16180;DHT22;8196;49.428;10.906;2023-05-02T06:20:17;9.80;99.90
16180;DHT22;8196;49.428;10.906;2023-05-02T06:22:44;13.60;99.90
16180;DHT22;8196;49.428;10.906;2023-05-02T06:25:11;10.10;99.90
16180;DHT22;8196;49.428;10.906;2023-05-02T06:27:38;10.30;99.90
16180;DHT22;8196;49.428;10.906;2023-05-02T06:30:05;10.30;99.90
16180;DHT22;8196;49.428;10.906;2023-05-02T06:32:32;9.70;99.90
16180;DHT22;8196;49.428;10.906;2023-05-02T06:34:59;10.40;99.90
16180;DHT22;8196;49.428;10.906;2023-05-02T06:37:26;10.50;99.90
16180;DHT22;8196;49.428;10.906;2023-05-02T06:39:52;10.60;99.90
16180;DHT22;8196;49.428;10.906;2023-05-02T06:42:19;10.80;99.90
16180;DHT22;8196;49.428;10.906;2023-05-02T06:44:46;10.90;99.90
16180;DHT22;8196;49.428;10.906;2023-05-02T06:47:13;10.90;99.90
16180;DHT22;8196;49.428;10.906;2023-05-02T06:49:39;10.90;99.90
16180;DHT22;8196;49.428;10.906;2023-05-02T06:52:06;10.90;99.90
16180;DHT22;8196;49.428;10.906;2023-05-02T06:54:33;11.00;99.90
16180;DHT22;8196;49.428;10.906;2023-05-02T06:56:59;11.00;99.90
16180;DHT22;8196;49.428;10.906;2023-05-02T06:59:27;11.00;99.90
16180;DHT22;8196;49.428;10.906;2023-05-02T07:01:54;11.10;99.90
16180;DHT22;8196;49.428;10.906;2023-05-02T07:04:21;11.10;99.90
16180;DHT22;8196;49.428;10.906;2023-05-02T07:06:47;11.20;99.90
16180;DHT22;8196;49.428;10.906;2023-05-02T07:09:14;11.40;99.90
16180;DHT22;8196;49.428;10.906;2023-05-02T07:11:42;11.40;99.90
16180;DHT22;8196;49.428;10.906;2023-05-02T07:14:09;11.50;99.90
16180;DHT22;8196;49.428;10.906;2023-05-02T07:16:35;11.60;99.90
16180;DHT22;8196;49.428;10.906;2023-05-02T07:19:02;11.70;99.90
16180;DHT22;8196;49.428;10.906;2023-05-02T07:21:32;11.70;99.90
16180;DHT22;8196;49.428;10.906;2023-05-02T07:23:59;11.70;99.90
16180;DHT22;8196;49.428;10.906;2023-05-02T07:26:27;11.80;99.90
16180;DHT22;8196;49.428;10.906;2023-05-02T07:28:54;11.90;99.90
16180;DHT22;8196;49.428;10.906;2023-05-02T07:31:20;11.80;99.90
16180;DHT22;8196;49.428;10.906;2023-05-02T07:33:47;11.90;99.90
16180;DHT22;8196;49.428;10.906;2023-05-02T07:36:14;11.80;99.90
16180;DHT22;8196;49.428;10.906;2023-05-02T07:38:40;11.60;99.90
16180;DHT22;8196;49.428;10.906;2023-05-02T07:41:07;11.50;99.90
16180;DHT22;8196;49.428;10.906;2023-05-02T07:43:34;11.50;99.90
16180;DHT22;8196;49.428;10.906;2023-05-02T07:46:04;11.40;99.90
16180;DHT22;8196;49.428;10.906;2023-05-02T07:48:32;11.40;99.90
16180;DHT22;8196;49.428;10.906;2023-05-02T07:51:07;11.50;99.90
16180;DHT22;8196;49.428;10.906;2023-05-02T07:53:34;11.50;99.90
16180;DHT22;8196;49.428;10.906;2023-05-02T07:56:03;11.40;99.90
16180;DHT22;8196;49.428;10.906;2023-05-02T07:58:32;11.50;99.90
16180;DHT22;8196;49.428;10.906;2023-05-02T08:00:58;11.50;99.90
16180;DHT22;8196;49.428;10.906;2023-05-02T08:03:25;11.60;99.90
16180;DHT22;8196;49.428;10.906;2023-05-02T08:05:53;11.60;99.90
16180;DHT22;8196;49.428;10.906;2023-05-02T08:08:20;8.30;99.90
16180;DHT22;8196;49.428;10.906;2023-05-02T08:10:47;11.80;99.90
16180;DHT22;8196;49.428;10.906;2023-05-02T08:13:16;12.00;99.90
16180;DHT22;8196;49.428;10.906;2023-05-02T08:15:43;11.90;99.90
16180;DHT22;8196;49.428;10.906;2023-05-02T08:18:10;12.80;99.90
16180;DHT22;8196;49.428;10.906;2023-05-02T08:20:37;12.90;99.90
16180;DHT22;8196;49.428;10.906;2023-05-02T08:23:07;13.20;99.90
16180;DHT22;8196;49.428;10.906;2023-05-02T08:25:33;13.30;99.90
16180;DHT22;8196;49.428;10.906;2023-05-02T08:28:00;13.80;99.90
16180;DHT22;8196;49.428;10.906;2023-05-02T08:30:27;13.90;99.90
16180;DHT22;8196;49.428;10.906;2023-05-02T08:32:54;14.00;99.90
16180;DHT22;8196;49.428;10.906;2023-05-02T08:35:20;14.20;99.90
16180;DHT22;8196;49.428;10.906;2023-05-02T08:37:47;14.70;99.90
16180;DHT22;8196;49.428;10.906;2023-05-02T08:40:16;14.70;99.90
16180;DHT22;8196;49.428;10.906;2023-05-02T08:42:56;15.10;99.90
16180;DHT22;8196;49.428;10.906;2023-05-02T08:45:23;15.70;99.90
16180;DHT22;8196;49.428;10.906;2023-05-02T08:47:53;16.40;99.90
16180;DHT22;8196;49.428;10.906;2023-05-02T08:50:21;16.40;99.90
16180;DHT22;8196;49.428;10.906;2023-05-02T08:52:49;16.70;99.90
16180;DHT22;8196;49.428;10.906;2023-05-02T08:55:17;16.70;99.90
16180;DHT22;8196;49.428;10.906;2023-05-02T08:57:44;16.80;99.90
16180;DHT22;8196;49.428;10.906;2023-05-02T09:00:11;16.80;99.90
16180;DHT22;8196;49.428;10.906;2023-05-02T09:03:02;17.00;99.90
16180;DHT22;8196;49.428;10.906;2023-05-02T09:05:32;17.30;95.00
16180;DHT22;8196;49.428;10.906;2023-05-02T09:08:09;17.30;94.80
16180;DHT22;8196;49.428;10.906;2023-05-02T09:10:36;17.30;93.60
16180;DHT22;8196;49.428;10.906;2023-05-02T09:16:08;17.40;95.00
16180;DHT22;8196;49.428;10.906;2023-05-02T09:21:07;17.80;90.50
16180;DHT22;8196;49.428;10.906;2023-05-02T09:23:36;18.00;90.30
16180;DHT22;8196;49.428;10.906;2023-05-02T09:28:40;19.50;86.90
16180;DHT22;8196;49.428;10.906;2023-05-02T09:31:09;19.80;86.60
16180;DHT22;8196;49.428;10.906;2023-05-02T09:33:38;20.40;80.30
16180;DHT22;8196;49.428;10.906;2023-05-02T09:36:05;20.40;76.40
16180;DHT22;8196;49.428;10.906;2023-05-02T09:38:33;20.60;74.40
16180;DHT22;8196;49.428;10.906;2023-05-02T09:41:00;20.90;74.90
16180;DHT22;8196;49.428;10.906;2023-05-02T09:43:30;21.80;73.70
16180;DHT22;8196;49.428;10.906;2023-05-02T09:48:27;22.60;67.00
16180;DHT22;8196;49.428;10.906;2023-05-02T09:50:55;23.20;63.10
16180;DHT22;8196;49.428;10.906;2023-05-02T09:53:25;26.70;65.80
16180;DHT22;8196;49.428;10.906;2023-05-02T09:56:01;22.80;62.70
16180;DHT22;8196;49.428;10.906;2023-05-02T09:58:28;23.50;62.00
16180;DHT22;8196;49.428;10.906;2023-05-02T10:00:57;23.90;62.40
16180;DHT22;8196;49.428;10.906;2023-05-02T10:03:25;24.80;60.00
16180;DHT22;8196;49.428;10.906;2023-05-02T10:05:52;25.40;57.60
16180;DHT22;8196;49.428;10.906;2023-05-02T10:08:23;25.60;54.70
16180;DHT22;8196;49.428;10.906;2023-05-02T10:10:53;25.50;54.80
16180;DHT22;8196;49.428;10.906;2023-05-02T10:13:21;25.30;56.50
16180;DHT22;8196;49.428;10.906;2023-05-02T10:15:57;26.40;55.90
16180;DHT22;8196;49.428;10.906;2023-05-02T10:18:27;26.60;50.50
16180;DHT22;8196;49.428;10.906;2023-05-02T10:20:57;25.50;51.40
16180;DHT22;8196;49.428;10.906;2023-05-02T10:23:26;25.30;51.50
16180;DHT22;8196;49.428;10.906;2023-05-02T10:25:54;25.20;53.00
16180;DHT22;8196;49.428;10.906;2023-05-02T10:28:23;25.10;53.90
16180;DHT22;8196;49.428;10.906;2023-05-02T10:30:50;24.80;54.10
16180;DHT22;8196;49.428;10.906;2023-05-02T10:33:20;24.30;54.80
16180;DHT22;8196;49.428;10.906;2023-05-02T10:35:47;23.90;55.80
16180;DHT22;8196;49.428;10.906;2023-05-02T10:38:18;23.50;57.00
16180;DHT22;8196;49.428;10.906;2023-05-02T10:40:54;23.20;57.30
16180;DHT22;8196;49.428;10.906;2023-05-02T10:43:24;22.80;58.40
16180;DHT22;8196;49.428;10.906;2023-05-02T10:45:52;22.80;59.70
16180;DHT22;8196;49.428;10.906;2023-05-02T10:48:20;23.90;57.50
16180;DHT22;8196;49.428;10.906;2023-05-02T10:53:29;25.20;56.60
16180;DHT22;8196;49.428;10.906;2023-05-02T10:56:18;26.10;50.00
16180;DHT22;8196;49.428;10.906;2023-05-02T10:58:48;25.40;51.90
16180;DHT22;8196;49.428;10.906;2023-05-02T11:01:35;25.10;52.20
16180;DHT22;8196;49.428;10.906;2023-05-02T11:04:06;24.40;53.40
16180;DHT22;8196;49.428;10.906;2023-05-02T11:06:36;23.70;54.40
16180;DHT22;8196;49.428;10.906;2023-05-02T11:11:42;22.20;57.00
16180;DHT22;8196;49.428;10.906;2023-05-02T11:14:10;21.90;58.00
16180;DHT22;8196;49.428;10.906;2023-05-02T11:19:26;20.50;59.10
16180;DHT22;8196;49.428;10.906;2023-05-02T11:24:45;19.60;63.40
16180;DHT22;8196;49.428;10.906;2023-05-02T11:29:57;20.30;63.30
16180;DHT22;8196;49.428;10.906;2023-05-02T11:35:19;19.50;64.30
16180;DHT22;8196;49.428;10.906;2023-05-02T11:37:55;19.20;66.20
16180;DHT22;8196;49.428;10.906;2023-05-02T11:40:23;19.10;66.70
16180;DHT22;8196;49.428;10.906;2023-05-02T11:42:50;18.80;66.00
16180;DHT22;8196;49.428;10.906;2023-05-02T11:45:17;18.70;67.40
16180;DHT22;8196;49.428;10.906;2023-05-02T11:47:44;18.60;67.20
16180;DHT22;8196;49.428;10.906;2023-05-02T11:50:13;18.50;67.80
16180;DHT22;8196;49.428;10.906;2023-05-02T11:52:43;18.70;68.70
16180;DHT22;8196;49.428;10.906;2023-05-02T11:55:12;18.80;67.90
16180;DHT22;8196;49.428;10.906;2023-05-02T11:57:40;19.00;68.50
16180;DHT22;8196;49.428;10.906;2023-05-02T12:00:07;19.00;69.20
16180;DHT22;8196;49.428;10.906;2023-05-02T12:02:36;19.10;69.50
16180;DHT22;8196;49.428;10.906;2023-05-02T12:05:04;19.10;69.40
16180;DHT22;8196;49.428;10.906;2023-05-02T12:07:37;18.70;68.80
16180;DHT22;8196;49.428;10.906;2023-05-02T12:10:05;18.70;69.50
16180;DHT22;8196;49.428;10.906;2023-05-02T12:12:32;18.40;70.00
16180;DHT22;8196;49.428;10.906;2023-05-02T12:15:04;18.00;71.00
16180;DHT22;8196;49.428;10.906;2023-05-02T12:17:32;17.50;72.20
16180;DHT22;8196;49.428;10.906;2023-05-02T12:20:02;16.90;75.90
16180;DHT22;8196;49.428;10.906;2023-05-02T12:22:30;16.40;80.00
16180;DHT22;8196;49.428;10.906;2023-05-02T12:24:57;15.70;83.20
16180;DHT22;8196;49.428;10.906;2023-05-02T12:27:24;15.20;85.30
16180;DHT22;8196;49.428;10.906;2023-05-02T12:29:52;14.80;87.40
16180;DHT22;8196;49.428;10.906;2023-05-02T12:32:29;14.30;90.80
16180;DHT22;8196;49.428;10.906;2023-05-02T12:34:56;14.00;94.80
16180;DHT22;8196;49.428;10.906;2023-05-02T12:37:25;13.70;99.10
16180;DHT22;8196;49.428;10.906;2023-05-02T12:39:53;13.40;99.90
16180;DHT22;8196;49.428;10.906;2023-05-02T12:42:22;13.30;99.90
16180;DHT22;8196;49.428;10.906;2023-05-02T12:44:50;13.10;99.90
16180;DHT22;8196;49.428;10.906;2023-05-02T12:47:18;13.00;99.90
16180;DHT22;8196;49.428;10.906;2023-05-02T12:49:55;12.90;99.90
16180;DHT22;8196;49.428;10.906;2023-05-02T12:52:44;12.80;99.90
16180;DHT22;8196;49.428;10.906;2023-05-02T12:55:27;12.70;99.90
16180;DHT22;8196;49.428;10.906;2023-05-02T12:58:06;12.20;99.90
16180;DHT22;8196;49.428;10.906;2023-05-02T13:00:36;12.10;99.90
16180;DHT22;8196;49.428;10.906;2023-05-02T13:03:03;11.90;99.90
16180;DHT22;8196;49.428;10.906;2023-05-02T13:05:31;11.70;99.90
16180;DHT22;8196;49.428;10.906;2023-05-02T13:07:57;11.40;99.90
16180;DHT22;8196;49.428;10.906;2023-05-02T13:10:25;11.40;99.90
16180;DHT22;8196;49.428;10.906;2023-05-02T13:12:53;11.30;99.90
16180;DHT22;8196;49.428;10.906;2023-05-02T13:15:21;11.10;99.90
16180;DHT22;8196;49.428;10.906;2023-05-02T13:17:49;11.10;99.90
16180;DHT22;8196;49.428;10.906;2023-05-02T13:20:17;11.10;99.90
16180;DHT22;8196;49.428;10.906;2023-05-02T13:22:44;11.10;99.90
16180;DHT22;8196;49.428;10.906;2023-05-02T13:25:11;11.10;99.90
16180;DHT22;8196;49.428;10.906;2023-05-02T13:27:38;12.20;99.90
16180;DHT22;8196;49.428;10.906;2023-05-02T13:30:07;16.10;99.90
16180;DHT22;8196;49.428;10.906;2023-05-02T13:32:35;13.60;99.90
16180;DHT22;8196;49.428;10.906;2023-05-02T13:35:02;15.70;99.90
16180;DHT22;8196;49.428;10.906;2023-05-02T13:37:29;17.00;99.90
16180;DHT22;8196;49.428;10.906;2023-05-02T13:39:55;17.40;99.90
16180;DHT22;8196;49.428;10.906;2023-05-02T13:42:22;17.70;99.90
16180;DHT22;8196;49.428;10.906;2023-05-02T13:44:49;17.80;99.90
16180;DHT22;8196;49.428;10.906;2023-05-02T13:47:16;17.50;99.90
16180;DHT22;8196;49.428;10.906;2023-05-02T13:49:49;17.70;99.90
16180;DHT22;8196;49.428;10.906;2023-05-02T13:52:15;19.50;99.90
16180;DHT22;8196;49.428;10.906;2023-05-02T13:54:42;21.90;99.90
16180;DHT22;8196;49.428;10.906;2023-05-02T13:57:09;23.70;90.90
16180;DHT22;8196;49.428;10.906;2023-05-02T13:59:36;24.90;74.50
16180;DHT22;8196;49.428;10.906;2023-05-02T14:02:02;26.00;68.80
16180;DHT22;8196;49.428;10.906;2023-05-02T14:04:30;27.10;62.40
16180;DHT22;8196;49.428;10.906;2023-05-02T14:06:57;27.90;57.30
16180;DHT22;8196;49.428;10.906;2023-05-02T14:09:24;27.80;54.50
16180;DHT22;8196;49.428;10.906;2023-05-02T14:11:51;27.90;53.60
16180;DHT22;8196;49.428;10.906;2023-05-02T14:14:20;28.00;52.70
16180;DHT22;8196;49.428;10.906;2023-05-02T14:16:47;28.00;51.10
16180;DHT22;8196;49.428;10.906;2023-05-02T14:19:16;28.20;50.30
16180;DHT22;8196;49.428;10.906;2023-05-02T14:21:43;28.40;51.10
16180;DHT22;8196;49.428;10.906;2023-05-02T14:24:10;29.00;50.00
16180;DHT22;8196;49.428;10.906;2023-05-02T14:26:38;29.50;49.00
16180;DHT22;8196;49.428;10.906;2023-05-02T14:29:04;30.30;46.10
16180;DHT22;8196;49.428;10.906;2023-05-02T14:31:31;30.40;47.50
16180;DHT22;8196;49.428;10.906;2023-05-02T14:33:58;31.00;46.80
16180;DHT22;8196;49.428;10.906;2023-05-02T14:36:25;31.70;45.50
16180;DHT22;8196;49.428;10.906;2023-05-02T14:38:52;32.50;41.50
16180;DHT22;8196;49.428;10.906;2023-05-02T14:41:19;30.50;39.60
16180;DHT22;8196;49.428;10.906;2023-05-02T14:43:47;33.00;38.90
16180;DHT22;8196;49.428;10.906;2023-05-02T14:46:13;32.70;39.20
16180;DHT22;8196;49.428;10.906;2023-05-02T14:48:40;32.70;38.80
16180;DHT22;8196;49.428;10.906;2023-05-02T14:51:07;32.60;38.90
16180;DHT22;8196;49.428;10.906;2023-05-02T14:53:34;33.10;39.10
16180;DHT22;8196;49.428;10.906;2023-05-02T14:56:00;33.80;37.20
16180;DHT22;8196;49.428;10.906;2023-05-02T14:58:27;33.80;36.30
16180;DHT22;8196;49.428;10.906;2023-05-02T15:00:54;34.30;36.70
16180;DHT22;8196;49.428;10.906;2023-05-02T15:03:20;35.10;34.60
16180;DHT22;8196;49.428;10.906;2023-05-02T15:05:47;34.50;33.80
16180;DHT22;8196;49.428;10.906;2023-05-02T15:08:14;34.50;34.10
16180;DHT22;8196;49.428;10.906;2023-05-02T15:10:41;34.70;34.10
16180;DHT22;8196;49.428;10.906;2023-05-02T15:13:08;35.00;33.20
16180;DHT22;8196;49.428;10.906;2023-05-02T15:15:34;35.10;32.50
16180;DHT22;8196;49.428;10.906;2023-05-02T15:18:02;35.20;31.80
16180;DHT22;8196;49.428;10.906;2023-05-02T15:20:30;34.90;31.20
16180;DHT22;8196;49.428;10.906;2023-05-02T15:22:56;34.70;31.00
16180;DHT22;8196;49.428;10.906;2023-05-02T15:25:28;34.60;32.00
16180;DHT22;8196;49.428;10.906;2023-05-02T15:27:57;34.20;30.60
16180;DHT22;8196;49.428;10.906;2023-05-02T15:30:24;33.80;31.80
16180;DHT22;8196;49.428;10.906;2023-05-02T15:32:50;34.10;32.60
16180;DHT22;8196;49.428;10.906;2023-05-02T15:35:17;34.50;32.40
16180;DHT22;8196;49.428;10.906;2023-05-02T15:37:44;34.50;29.50
16180;DHT22;8196;49.428;10.906;2023-05-02T15:40:14;34.50;30.00
16180;DHT22;8196;49.428;10.906;2023-05-02T15:42:41;34.10;31.10
16180;DHT22;8196;49.428;10.906;2023-05-02T15:45:10;34.10;31.10
16180;DHT22;8196;49.428;10.906;2023-05-02T15:47:41;33.80;30.80
16180;DHT22;8196;49.428;10.906;2023-05-02T15:50:08;33.70;31.30
16180;DHT22;8196;49.428;10.906;2023-05-02T15:52:36;33.50;32.30
16180;DHT22;8196;49.428;10.906;2023-05-02T15:55:03;33.50;32.70
16180;DHT22;8196;49.428;10.906;2023-05-02T15:57:30;33.40;32.30
16180;DHT22;8196;49.428;10.906;2023-05-02T15:59:57;33.50;32.70
16180;DHT22;8196;49.428;10.906;2023-05-02T16:02:24;33.30;30.50
16180;DHT22;8196;49.428;10.906;2023-05-02T16:04:50;32.20;33.00
16180;DHT22;8196;49.428;10.906;2023-05-02T16:07:17;31.90;33.80
16180;DHT22;8196;49.428;10.906;2023-05-02T16:09:44;31.50;33.80
16180;DHT22;8196;49.428;10.906;2023-05-02T16:12:11;31.40;35.60
16180;DHT22;8196;49.428;10.906;2023-05-02T16:14:39;31.50;35.00
16180;DHT22;8196;49.428;10.906;2023-05-02T16:17:05;30.20;35.60
16180;DHT22;8196;49.428;10.906;2023-05-02T16:19:32;28.00;38.40
16180;DHT22;8196;49.428;10.906;2023-05-02T16:21:59;25.80;42.00
16180;DHT22;8196;49.428;10.906;2023-05-02T16:24:26;24.10;45.30
16180;DHT22;8196;49.428;10.906;2023-05-02T16:26:53;22.80;47.80
16180;DHT22;8196;49.428;10.906;2023-05-02T16:29:19;21.40;50.00
16180;DHT22;8196;49.428;10.906;2023-05-02T16:31:46;20.90;52.20
16180;DHT22;8196;49.428;10.906;2023-05-02T16:34:13;20.20;54.00
16180;DHT22;8196;49.428;10.906;2023-05-02T16:36:40;19.50;56.40